createdAt,value
2022-08-18T00:01:49.505Z,6.10
2022-08-18T00:04:48.561Z,6.05
2022-08-18T00:07:36.338Z,8.15
2022-08-18T00:10:22.837Z,7.10
2022-08-18T00:13:09.462Z,5.22
2022-08-18T00:15:55.938Z,7.53
2022-08-18T00:18:43.719Z,6.05
2022-08-18T00:21:30.457Z,11.57
2022-08-18T00:24:16.657Z,6.70
2022-08-18T00:27:03.411Z,8.93
2022-08-18T00:29:50.010Z,5.93
2022-08-18T00:32:39.319Z,6.00
2022-08-18T00:35:30.287Z,6.78
2022-08-18T00:38:24.755Z,5.10
2022-08-18T00:41:12.048Z,8.55
2022-08-18T00:43:59.371Z,7.07
2022-08-18T00:46:45.787Z,5.47
2022-08-18T00:49:32.211Z,7.93
2022-08-18T00:52:21.095Z,5.05
2022-08-18T00:55:08.413Z,7.93
2022-08-18T00:57:58.544Z,5.68
2022-08-18T01:00:46.261Z,7.75
2022-08-18T01:03:35.211Z,9.65
2022-08-18T01:06:28.683Z,5.43
2022-08-18T01:09:18.556Z,7.63
2022-08-18T01:12:39.419Z,5.50
2022-08-18T01:15:27.851Z,5.53
2022-08-18T01:18:34.086Z,5.63
2022-08-18T01:21:42.442Z,5.38
2022-08-18T01:24:52.297Z,6.03
2022-08-18T01:27:41.816Z,5.97
2022-08-18T01:30:28.096Z,6.55
2022-08-18T01:33:14.384Z,4.50
2022-08-18T01:36:04.333Z,7.68
2022-08-18T01:38:52.977Z,5.47
2022-08-18T01:41:41.867Z,5.88
2022-08-18T01:44:28.443Z,7.18
2022-08-18T01:47:17.061Z,5.00
2022-08-18T01:50:05.796Z,6.97
2022-08-18T01:52:53.425Z,6.28
2022-08-18T01:55:44.416Z,7.05
2022-08-18T01:58:32.462Z,6.82
2022-08-18T02:01:19.087Z,6.63
2022-08-18T02:04:33.273Z,5.90
2022-08-18T02:07:15.334Z,7.72
2022-08-18T02:10:02.020Z,8.60
2022-08-18T02:12:49.001Z,6.47
2022-08-18T02:15:37.100Z,7.53
2022-08-18T02:18:47.795Z,4.72
2022-08-18T02:21:33.834Z,6.35
2022-08-18T02:24:20.764Z,7.32
2022-08-18T02:27:08.210Z,10.07
2022-08-18T02:29:54.672Z,7.97
2022-08-18T02:32:42.510Z,7.55
2022-08-18T02:35:29.153Z,5.85
2022-08-18T02:38:17.347Z,9.70
2022-08-18T02:41:06.509Z,5.78
2022-08-18T02:43:52.938Z,8.60
2022-08-18T02:46:40.735Z,7.30
2022-08-18T02:49:29.198Z,6.05
2022-08-18T02:52:17.288Z,11.05
2022-08-18T02:55:04.710Z,4.88
2022-08-18T02:57:52.035Z,5.63
2022-08-18T03:00:39.018Z,6.97
2022-08-18T03:03:25.553Z,6.70
2022-08-18T03:06:13.401Z,9.75
2022-08-18T03:08:59.857Z,5.03
2022-08-18T03:11:47.358Z,9.35
2022-08-18T03:14:33.790Z,6.40
2022-08-18T03:17:20.082Z,9.40
2022-08-18T03:20:08.007Z,5.45
2022-08-18T03:22:56.621Z,4.78
2022-08-18T03:25:48.380Z,11.23
2022-08-18T03:28:35.058Z,5.95
2022-08-18T03:31:23.654Z,6.13
2022-08-18T03:34:11.022Z,8.13
2022-08-18T03:36:57.495Z,4.60
2022-08-18T03:39:45.503Z,5.25
2022-08-18T03:42:32.242Z,8.75
2022-08-18T03:45:18.962Z,6.13
2022-08-18T03:48:05.893Z,5.93
2022-08-18T03:50:52.502Z,4.85
2022-08-18T03:53:39.530Z,8.50
2022-08-18T03:56:33.067Z,9.57
2022-08-18T03:59:22.723Z,13.40
2022-08-18T04:02:09.493Z,8.15
2022-08-18T04:04:56.228Z,6.53
2022-08-18T04:07:43.091Z,11.93
2022-08-18T04:10:31.048Z,9.10
2022-08-18T04:13:19.014Z,8.57
2022-08-18T04:16:06.071Z,6.05
2022-08-18T04:18:53.019Z,7.13
2022-08-18T04:21:42.216Z,5.30
2022-08-18T04:24:31.248Z,4.97
2022-08-18T04:27:20.023Z,10.15
2022-08-18T04:30:09.577Z,7.70
2022-08-18T04:32:55.837Z,5.25
2022-08-18T04:35:42.175Z,6.07
2022-08-18T04:38:28.545Z,7.38
2022-08-18T04:41:15.403Z,13.23
2022-08-18T04:44:05.587Z,7.93
2022-08-18T04:46:55.105Z,7.82
2022-08-18T04:49:44.520Z,10.02
2022-08-18T04:52:48.515Z,8.13
2022-08-18T04:55:35.025Z,8.65
2022-08-18T04:58:21.941Z,9.15
2022-08-18T05:01:09.992Z,9.63
2022-08-18T05:03:59.626Z,12.55
2022-08-18T05:06:47.267Z,9.10
2022-08-18T05:09:33.686Z,9.55
2022-08-18T05:12:28.845Z,9.90
2022-08-18T05:15:15.183Z,10.65
2022-08-18T05:18:01.442Z,10.43
2022-08-18T05:20:49.885Z,10.18
2022-08-18T05:23:36.327Z,9.85
2022-08-18T05:26:22.668Z,15.20
2022-08-18T05:29:18.991Z,10.05
2022-08-18T05:32:07.804Z,12.55
2022-08-18T05:34:54.677Z,12.27
2022-08-18T05:37:53.384Z,13.82
2022-08-18T05:40:40.272Z,11.65
2022-08-18T05:43:26.898Z,11.52
2022-08-18T05:46:13.292Z,14.25
2022-08-18T05:49:01.879Z,15.63
2022-08-18T05:51:50.273Z,13.57
2022-08-18T05:54:59.385Z,17.15
2022-08-18T05:57:51.410Z,13.38
2022-08-18T06:00:38.356Z,12.68
2022-08-18T06:03:27.991Z,16.48
2022-08-18T06:06:20.795Z,16.30
2022-08-18T06:09:14.923Z,18.70
2022-08-18T06:12:14.044Z,16.23
2022-08-18T06:15:09.256Z,21.05
2022-08-18T06:18:27.326Z,16.58
2022-08-18T06:21:38.316Z,19.02
2022-08-18T06:24:32.514Z,22.80
2022-08-18T06:27:29.744Z,19.55
2022-08-18T06:30:21.267Z,20.33
2022-08-18T06:33:17.372Z,19.70
2022-08-18T06:36:10.437Z,19.77
2022-08-18T06:39:06.610Z,18.95
2022-08-18T06:41:54.057Z,24.85
2022-08-18T06:44:46.079Z,20.05
2022-08-18T06:47:40.816Z,16.20
2022-08-18T06:50:33.472Z,18.30
2022-08-18T06:53:27.784Z,19.83
2022-08-18T06:56:26.479Z,19.42
2022-08-18T06:59:24.934Z,20.00
2022-08-18T07:02:21.807Z,16.02
2022-08-18T07:05:19.166Z,22.40
2022-08-18T07:08:16.175Z,20.92
2022-08-18T07:11:15.283Z,18.48
2022-08-18T07:14:17.178Z,18.08
2022-08-18T07:17:09.035Z,16.52
2022-08-18T07:19:59.703Z,16.05
2022-08-18T07:22:54.656Z,20.13
2022-08-18T07:25:43.590Z,19.80
2022-08-18T07:28:32.691Z,18.50
2022-08-18T07:31:40.946Z,16.77
2022-08-18T07:34:37.389Z,16.10
2022-08-18T07:37:30.376Z,18.13
2022-08-18T07:40:24.793Z,15.32
2022-08-18T07:43:18.564Z,13.32
2022-08-18T07:46:11.809Z,15.43
2022-08-18T07:48:59.389Z,14.63
2022-08-18T07:51:53.138Z,15.35
2022-08-18T07:54:51.487Z,15.30
2022-08-18T07:57:45.979Z,13.23
2022-08-18T08:00:58.316Z,28.30
2022-08-18T08:03:55.538Z,14.43
2022-08-18T08:07:06.444Z,13.30
2022-08-18T08:10:02.827Z,20.13
2022-08-18T08:13:08.758Z,17.63
2022-08-18T08:16:03.617Z,23.52
2022-08-18T08:18:59.674Z,32.20
2022-08-18T08:21:56.765Z,13.90
2022-08-18T08:24:50.584Z,23.10
2022-08-18T08:27:54.261Z,16.58
2022-08-18T08:30:48.455Z,20.67
2022-08-18T08:33:42.947Z,20.23
2022-08-18T08:36:35.412Z,16.13
2022-08-18T08:39:28.683Z,18.58
2022-08-18T08:42:31.678Z,17.63
2022-08-18T08:45:25.171Z,24.10
2022-08-18T08:48:18.611Z,17.08
2022-08-18T08:51:22.158Z,14.70
2022-08-18T08:54:16.156Z,23.58
2022-08-18T08:57:04.135Z,22.38
2022-08-18T08:59:52.711Z,19.73
2022-08-18T09:02:55.602Z,17.27
2022-08-18T09:05:56.184Z,15.80
2022-08-18T09:09:00.766Z,15.90
2022-08-18T09:12:06.093Z,16.88
2022-08-18T09:15:17.651Z,18.20
2022-08-18T09:18:30.070Z,17.70
2022-08-18T09:21:33.498Z,15.70
2022-08-18T09:24:26.715Z,12.73
2022-08-18T09:27:24.315Z,21.15
2022-08-18T09:30:40.258Z,19.27
2022-08-18T09:33:49.125Z,18.83
2022-08-18T09:36:46.058Z,16.67
2022-08-18T09:43:13.139Z,26.17
2022-08-18T09:46:08.707Z,14.13
2022-08-18T09:49:47.598Z,20.27
2022-08-18T09:52:58.266Z,15.88
2022-08-18T09:56:01.427Z,19.60
2022-08-18T09:58:55.801Z,19.25
2022-08-18T10:01:42.516Z,17.88
2022-08-18T10:04:35.394Z,16.10
2022-08-18T10:07:43.196Z,15.48
2022-08-18T10:11:02.368Z,13.25
2022-08-18T10:13:51.062Z,15.32
2022-08-18T10:20:04.916Z,47.47
2022-08-18T10:22:51.704Z,33.95
2022-08-18T10:25:41.903Z,35.13
2022-08-18T10:28:53.550Z,26.23
2022-08-18T10:32:14.024Z,17.42
2022-08-18T10:35:02.235Z,15.32
2022-08-18T10:37:50.838Z,14.40
2022-08-18T10:40:38.807Z,14.45
2022-08-18T10:43:55.187Z,13.00
2022-08-18T10:46:46.731Z,12.75
2022-08-18T10:49:34.540Z,13.85
2022-08-18T10:53:24.118Z,10.93
2022-08-18T10:56:04.109Z,11.55
2022-08-18T10:59:06.813Z,9.35
2022-08-18T11:02:13.265Z,11.88
2022-08-18T11:05:07.840Z,14.95
2022-08-18T11:08:01.771Z,11.05
2022-08-18T11:11:27.708Z,11.02
2022-08-18T11:14:08.246Z,8.90
2022-08-18T11:17:06.914Z,12.63
2022-08-18T11:19:55.383Z,16.20
2022-08-18T11:22:51.734Z,9.30
2022-08-18T11:25:41.994Z,11.43
2022-08-18T11:28:31.807Z,60.00
2022-08-18T11:31:19.160Z,9.75
2022-08-18T11:34:18.367Z,14.23
2022-08-18T11:37:09.850Z,18.90
2022-08-18T11:39:58.905Z,18.80
2022-08-18T11:42:55.804Z,12.40
2022-08-18T11:45:54.074Z,15.05
2022-08-18T11:48:52.144Z,11.52
2022-08-18T11:51:56.555Z,12.75
2022-08-18T11:54:50.807Z,13.43
2022-08-18T11:57:58.659Z,17.65
2022-08-18T12:01:01.640Z,22.50
2022-08-18T12:03:50.127Z,23.95
2022-08-18T12:06:38.180Z,13.50
2022-08-18T12:12:53.945Z,11.18
2022-08-18T12:15:46.570Z,11.40
2022-08-18T12:18:33.781Z,10.45
2022-08-18T12:21:21.358Z,10.40
2022-08-18T12:24:14.841Z,10.23
2022-08-18T12:27:01.521Z,10.68
2022-08-18T12:33:17.603Z,14.23
2022-08-18T12:36:12.087Z,15.77
2022-08-18T12:39:00.168Z,15.68
2022-08-18T12:41:47.522Z,13.07
2022-08-18T12:44:34.234Z,13.98
2022-08-18T12:47:24.972Z,15.52
2022-08-18T12:50:17.555Z,12.30
2022-08-18T12:53:04.501Z,12.85
2022-08-18T12:55:51.252Z,17.30
2022-08-18T12:58:37.493Z,15.23
2022-08-18T13:01:27.512Z,13.63
2022-08-18T13:07:23.047Z,11.85
2022-08-18T13:10:10.148Z,14.18
2022-08-18T13:13:18.675Z,23.08
2022-08-18T13:16:08.012Z,10.85
2022-08-18T13:18:54.649Z,19.58
2022-08-18T13:21:43.172Z,13.68
2022-08-18T13:24:29.642Z,11.43
2022-08-18T13:27:18.534Z,11.43
2022-08-18T13:30:26.188Z,13.00
2022-08-18T13:33:34.632Z,13.73
2022-08-18T13:36:28.931Z,14.23
2022-08-18T13:39:18.881Z,12.23
2022-08-18T13:42:26.604Z,20.00
2022-08-18T13:45:24.627Z,13.07
2022-08-18T13:48:12.330Z,15.05
2022-08-18T13:51:01.766Z,21.27
2022-08-18T13:54:17.384Z,37.35
2022-08-18T13:56:56.143Z,13.50
2022-08-18T13:59:46.480Z,15.23
2022-08-18T14:02:33.421Z,18.70
2022-08-18T14:05:20.142Z,12.60
2022-08-18T14:08:07.142Z,14.05
2022-08-18T14:10:58.307Z,16.75
2022-08-18T14:13:46.842Z,12.65
2022-08-18T14:16:36.043Z,15.65
2022-08-18T14:19:46.268Z,18.98
2022-08-18T14:22:50.300Z,17.90
2022-08-18T14:25:54.450Z,30.02
2022-08-18T14:28:42.951Z,20.20
2022-08-18T14:31:30.786Z,15.20
2022-08-18T14:34:21.637Z,16.38
2022-08-18T14:37:14.906Z,25.88
2022-08-18T14:40:01.772Z,14.27
2022-08-18T14:42:54.993Z,13.68
2022-08-18T14:45:45.761Z,14.20
2022-08-18T14:48:34.548Z,33.08
2022-08-18T14:51:23.449Z,34.60
2022-08-18T14:54:17.894Z,15.10
2022-08-18T14:57:09.110Z,16.88
2022-08-18T14:59:55.889Z,14.52
2022-08-18T15:02:44.061Z,17.85
2022-08-18T15:05:34.362Z,20.23
2022-08-18T15:11:12.710Z,17.65
2022-08-18T15:14:01.445Z,19.70
2022-08-18T15:16:48.684Z,19.67
2022-08-18T15:19:58.577Z,15.73
2022-08-18T15:23:04.026Z,19.15
2022-08-18T15:25:51.286Z,18.02
2022-08-18T15:28:38.876Z,18.15
2022-08-18T15:34:46.782Z,23.23
2022-08-18T15:37:38.258Z,25.02
2022-08-18T15:40:41.267Z,24.27
2022-08-18T15:43:31.538Z,23.17
2022-08-18T15:46:18.290Z,21.48
2022-08-18T15:49:09.572Z,20.35
2022-08-18T15:51:59.698Z,19.70
2022-08-18T15:54:51.045Z,16.33
2022-08-18T15:57:40.287Z,13.85
2022-08-18T16:00:29.714Z,18.88
2022-08-18T16:03:17.627Z,19.55
2022-08-18T16:06:04.229Z,17.35
2022-08-18T16:08:53.051Z,20.38
2022-08-18T16:11:41.418Z,18.63
2022-08-18T16:14:30.229Z,17.23
2022-08-18T16:17:23.607Z,19.50
2022-08-18T16:20:11.400Z,21.45
2022-08-18T16:22:58.707Z,20.63
2022-08-18T16:25:45.027Z,16.83
2022-08-18T16:28:34.632Z,20.48
2022-08-18T16:31:29.319Z,17.45
2022-08-18T16:34:15.870Z,23.55
2022-08-18T16:37:02.478Z,18.52
2022-08-18T16:39:49.050Z,20.08
2022-08-18T16:42:35.931Z,18.60
2022-08-18T16:45:22.566Z,24.58
2022-08-18T16:48:13.291Z,18.90
2022-08-18T16:51:01.908Z,21.67
2022-08-18T16:53:49.520Z,17.95
2022-08-18T16:56:37.512Z,16.48
2022-08-18T16:59:41.303Z,23.08
2022-08-18T17:02:45.597Z,25.15
2022-08-18T17:05:33.945Z,19.05
2022-08-18T17:08:20.446Z,17.92
2022-08-18T17:11:09.782Z,14.48
2022-08-18T17:13:58.060Z,20.77
2022-08-18T17:16:46.181Z,17.80
2022-08-18T17:19:35.355Z,16.55
2022-08-18T17:22:23.784Z,17.98
2022-08-18T17:25:14.509Z,14.68
2022-08-18T17:28:06.169Z,16.40
2022-08-18T17:30:56.785Z,24.13
2022-08-18T17:33:46.033Z,32.67
2022-08-18T17:36:37.277Z,18.63
2022-08-18T17:39:33.745Z,18.17
2022-08-18T17:42:29.123Z,20.50
2022-08-18T17:45:21.711Z,22.20
2022-08-18T17:48:14.334Z,15.15
2022-08-18T17:51:22.425Z,21.85
2022-08-18T17:54:18.105Z,27.40
2022-08-18T17:57:09.849Z,21.98
2022-08-18T18:00:00.017Z,17.08
2022-08-18T18:02:47.885Z,14.80
2022-08-18T18:05:45.131Z,14.35
2022-08-18T18:08:55.418Z,16.08
2022-08-18T18:11:47.057Z,15.63
2022-08-18T18:14:39.495Z,12.85
2022-08-18T18:17:28.353Z,15.38
2022-08-18T18:20:24.819Z,19.45
2022-08-18T18:23:17.976Z,14.07
2022-08-18T18:26:28.305Z,16.23
2022-08-18T18:29:19.108Z,12.75
2022-08-18T18:32:23.404Z,16.55
2022-08-18T18:35:16.886Z,15.82
2022-08-18T18:38:06.478Z,13.85
2022-08-18T18:41:00.062Z,15.45
2022-08-18T18:43:48.958Z,14.38
2022-08-18T18:46:41.249Z,12.88
2022-08-18T18:49:38.378Z,14.75
2022-08-18T18:52:37.062Z,14.93
2022-08-18T18:55:25.676Z,13.93
2022-08-18T18:58:22.697Z,14.45
2022-08-18T19:01:17.301Z,14.30
2022-08-18T19:04:08.790Z,19.05
2022-08-18T19:07:00.790Z,13.45
2022-08-18T19:09:52.363Z,15.18
2022-08-18T19:12:46.518Z,14.40
2022-08-18T19:15:38.337Z,13.95
2022-08-18T19:18:29.145Z,15.10
2022-08-18T19:22:02.120Z,13.05
2022-08-18T19:24:31.157Z,18.65
2022-08-18T19:27:26.270Z,15.75
2022-08-18T19:30:16.967Z,15.65
2022-08-18T19:33:06.433Z,19.73
2022-08-18T19:35:59.397Z,15.95
2022-08-18T19:38:55.105Z,15.80
2022-08-18T19:41:48.001Z,17.50
2022-08-18T19:44:47.380Z,15.05
2022-08-18T19:47:52.090Z,16.30
2022-08-18T19:50:44.290Z,17.17
2022-08-18T19:53:52.617Z,20.58
2022-08-18T19:56:57.186Z,14.57
2022-08-18T20:00:05.633Z,17.33
2022-08-18T20:03:18.477Z,16.35
2022-08-18T20:06:34.561Z,15.00
2022-08-18T20:09:40.768Z,17.92
2022-08-18T20:12:56.600Z,18.00
2022-08-18T20:16:10.706Z,16.75
2022-08-18T20:18:57.859Z,17.33
2022-08-18T20:21:47.718Z,19.38
2022-08-18T20:24:46.315Z,18.58
2022-08-18T20:27:36.942Z,15.48
2022-08-18T20:30:28.159Z,15.20
2022-08-18T20:33:20.084Z,17.63
2022-08-18T20:36:17.534Z,14.68
2022-08-18T20:39:43.985Z,17.05
2022-08-18T20:42:57.538Z,18.92
2022-08-18T20:46:06.760Z,17.75
2022-08-18T20:49:13.158Z,14.38
2022-08-18T20:52:06.488Z,17.90
2022-08-18T20:55:10.780Z,17.25
2022-08-18T20:58:05.445Z,19.55
2022-08-18T21:00:58.164Z,21.15
2022-08-18T21:03:46.637Z,17.35
2022-08-18T21:06:37.625Z,24.33
2022-08-18T21:09:24.618Z,19.77
2022-08-18T21:12:14.646Z,20.75
2022-08-18T21:15:10.553Z,19.25
2022-08-18T21:18:01.540Z,18.58
2022-08-18T21:20:48.207Z,20.38
2022-08-18T21:23:37.516Z,17.73
2022-08-18T21:26:25.903Z,18.05
2022-08-18T21:29:14.288Z,19.75
2022-08-18T21:32:12.022Z,18.88
2022-08-18T21:35:01.878Z,18.83
2022-08-18T21:37:56.313Z,17.98
2022-08-18T21:40:46.498Z,17.90
2022-08-18T21:43:48.855Z,15.45
2022-08-18T21:46:36.010Z,17.65
2022-08-18T21:49:26.694Z,15.63
2022-08-18T21:52:24.040Z,13.57
2022-08-18T21:55:22.298Z,20.48
2022-08-18T21:58:19.397Z,13.23
2022-08-18T22:01:24.238Z,17.83
2022-08-18T22:04:24.224Z,17.60
2022-08-18T22:07:22.025Z,16.65
2022-08-18T22:10:44.423Z,15.75
2022-08-18T22:13:48.781Z,16.30
2022-08-18T22:16:37.383Z,17.05
2022-08-18T22:19:26.597Z,18.77
2022-08-18T22:22:37.306Z,14.88
2022-08-18T22:25:24.519Z,15.65
2022-08-18T22:28:11.064Z,15.15
2022-08-18T22:30:59.329Z,16.63
2022-08-18T22:33:46.328Z,19.17
2022-08-18T22:36:37.217Z,15.40
2022-08-18T22:39:29.342Z,17.08
2022-08-18T22:42:17.056Z,18.58
2022-08-18T22:45:08.443Z,20.60
2022-08-18T22:47:57.339Z,19.13
2022-08-18T22:50:43.985Z,16.90
2022-08-18T22:53:30.565Z,14.43
2022-08-18T22:56:23.750Z,17.20
2022-08-18T22:59:21.079Z,13.98
2022-08-18T23:02:07.731Z,20.92
2022-08-18T23:04:54.225Z,17.02
2022-08-18T23:07:40.537Z,14.60
2022-08-18T23:10:27.202Z,16.55
2022-08-18T23:13:16.627Z,17.90
2022-08-18T23:16:30.187Z,15.10
2022-08-18T23:19:09.053Z,19.67
2022-08-18T23:21:55.971Z,16.02
2022-08-18T23:24:42.549Z,18.55
2022-08-18T23:27:28.818Z,21.75
2022-08-18T23:30:16.550Z,17.88
2022-08-18T23:33:03.488Z,17.70
2022-08-18T23:35:50.393Z,17.25
2022-08-18T23:38:38.258Z,17.45
2022-08-18T23:41:25.271Z,18.23
2022-08-18T23:44:13.702Z,20.92
2022-08-18T23:47:03.254Z,22.50
2022-08-18T23:49:49.846Z,15.68
2022-08-18T23:52:36.223Z,16.33
2022-08-18T23:55:22.794Z,16.33
2022-08-18T23:58:09.483Z,17.33
